Time;durP1;ratioP1;P1;durP2;ratioP2;P2;SDS_P1;SDS_P2;PMS_P1;PMS_P2;Temp;Humidity;BMP_temperature;BMP_pressure;BME280_temperature;BME280_humidity;BME280_pressure;Samples;Min_cycle;Max_cycle;Signal;HPM_P1;HPM_P2
2024/02/18 00:00:26;;;;;;;6.80;5.07;;;21.70;81.30;;;;;;4996039;28;20463;-68
2024/02/18 00:02:53;;;;;;;7.33;4.30;;;21.70;81.20;;;;;;4998840;28;20474;-69
2024/02/18 00:05:33;;;;;;;7.50;4.40;;;21.70;81.20;;;;;;4995556;28;20791;-69
2024/02/18 00:08:02;;;;;;;5.25;4.53;;;21.60;81.20;;;;;;4999837;28;20207;-69
2024/02/18 00:10:30;;;;;;;6.13;5.18;;;21.60;81.20;;;;;;5001627;28;20211;-69
2024/02/18 00:12:57;;;;;;;6.70;4.93;;;21.60;81.20;;;;;;4999711;28;20208;-69
2024/02/18 00:15:35;;;;;;;6.10;4.50;;;21.60;81.10;;;;;;5001799;28;20231;-69
2024/02/18 00:18:02;;;;;;;6.45;4.03;;;21.60;81.10;;;;;;5001387;28;20462;-67
2024/02/18 00:20:35;;;;;;;5.87;4.33;;;21.60;81.10;;;;;;4998761;28;20204;-69
2024/02/18 00:23:02;;;;;;;7.10;4.70;;;21.60;81.10;;;;;;4985877;28;20491;-70
2024/02/18 00:25:34;;;;;;;7.75;4.65;;;21.50;81.00;;;;;;4994895;28;20463;-69
2024/02/18 00:28:00;;;;;;;8.07;5.07;;;21.50;80.90;;;;;;4993192;28;20230;-69
2024/02/18 00:30:27;;;;;;;5.40;4.90;;;21.50;81.00;;;;;;4996537;28;20456;-69
2024/02/18 00:32:55;;;;;;;3.90;3.50;;;21.50;81.00;;;;;;5003071;28;20470;-67
2024/02/18 00:35:25;;;;;;;5.28;4.20;;;21.50;80.90;;;;;;4996826;28;21111;-68
2024/02/18 00:37:53;;;;;;;7.47;4.40;;;21.40;80.80;;;;;;4996565;28;20184;-69
2024/02/18 00:40:19;;;;;;;5.43;3.87;;;21.50;81.00;;;;;;4972652;28;20382;-68
2024/02/18 00:42:48;;;;;;;4.88;3.75;;;21.50;81.10;;;;;;4988954;28;20471;-67
2024/02/18 00:45:15;;;;;;;6.47;4.20;;;21.50;81.00;;;;;;4995341;28;20521;-68
2024/02/18 00:47:42;;;;;;;6.50;4.43;;;21.50;81.10;;;;;;4996064;28;20336;-70
2024/02/18 00:50:10;;;;;;;6.63;5.25;;;21.50;81.40;;;;;;4989459;28;21233;-72
2024/02/18 00:52:36;;;;;;;8.15;4.65;;;21.40;81.40;;;;;;5000865;28;20396;-69
2024/02/18 00:55:08;;;;;;;5.88;4.32;;;21.40;81.40;;;;;;4999535;28;20200;-70
2024/02/18 00:57:35;;;;;;;5.00;4.50;;;21.40;81.50;;;;;;4998782;28;21003;-73
2024/02/18 01:00:02;;;;;;;5.15;4.70;;;21.40;81.40;;;;;;4999167;28;20200;-71
2024/02/18 01:02:30;;;;;;;7.45;4.55;;;21.40;81.40;;;;;;5003816;28;20221;-70
2024/02/18 01:04:57;;;;;;;5.63;4.45;;;21.30;81.30;;;;;;4995929;28;20238;-73
2024/02/18 01:07:26;;;;;;;6.50;4.60;;;21.30;81.30;;;;;;4990792;28;20640;-71
2024/02/18 01:09:56;;;;;;;6.88;4.60;;;21.30;81.20;;;;;;4996576;28;20203;-72
2024/02/18 01:12:27;;;;;;;5.27;4.77;;;21.30;81.30;;;;;;4996448;28;20552;-72
2024/02/18 01:14:54;;;;;;;7.35;4.53;;;21.30;82.10;;;;;;4996820;28;20469;-73
2024/02/18 01:17:20;;;;;;;6.22;4.35;;;21.30;81.20;;;;;;4999991;28;20200;-69
2024/02/18 01:19:52;;;;;;;6.85;5.13;;;21.30;81.20;;;;;;4998295;28;20209;-68
2024/02/18 01:22:19;;;;;;;5.15;4.63;;;21.30;81.20;;;;;;4997924;28;20636;-72
2024/02/18 01:24:46;;;;;;;6.15;5.55;;;21.20;81.00;;;;;;4997234;28;20223;-74
2024/02/18 01:27:13;;;;;;;5.75;4.10;;;21.20;81.10;;;;;;5002704;28;20200;-74
2024/02/18 01:29:43;;;;;;;5.53;4.85;;;21.20;81.00;;;;;;4994690;28;20203;-70
2024/02/18 01:32:09;;;;;;;7.93;5.22;;;21.20;81.20;;;;;;4996997;28;20236;-72
2024/02/18 01:34:40;;;;;;;5.75;4.90;;;21.20;81.00;;;;;;4989247;28;20191;-72
2024/02/18 01:37:07;;;;;;;6.00;4.82;;;21.20;81.00;;;;;;4993152;28;20656;-72
2024/02/18 01:39:34;;;;;;;6.95;5.20;;;21.10;80.90;;;;;;4995966;28;20196;-72
2024/02/18 01:42:03;;;;;;;4.70;4.05;;;21.10;81.10;;;;;;4997065;28;20204;-73
2024/02/18 01:44:30;;;;;;;6.40;4.90;;;21.10;81.20;;;;;;4995875;28;20902;-72
2024/02/18 01:47:01;;;;;;;6.95;4.50;;;21.10;81.20;;;;;;4999227;28;20203;-72
2024/02/18 01:49:30;;;;;;;5.88;4.65;;;21.10;81.20;;;;;;4999822;28;20270;-74
2024/02/18 01:51:57;;;;;;;7.35;4.30;;;21.00;81.00;;;;;;4999202;28;20790;-71
2024/02/18 01:54:31;;;;;;;5.50;4.13;;;21.10;81.00;;;;;;4995551;28;20208;-71
2024/02/18 01:57:01;;;;;;;4.20;3.60;;;21.00;80.90;;;;;;4989514;28;20208;-70
2024/02/18 01:59:31;;;;;;;4.30;3.45;;;21.00;81.00;;;;;;4996141;28;20206;-71
2024/02/18 02:02:03;;;;;;;10.00;5.53;;;21.00;81.00;;;;;;4996237;28;20204;-71
2024/02/18 02:04:32;;;;;;;5.78;5.18;;;21.00;81.00;;;;;;4990294;28;20652;-70
2024/02/18 02:07:02;;;;;;;5.32;4.78;;;21.00;80.90;;;;;;4995081;28;20203;-73
2024/02/18 02:09:30;;;;;;;7.95;4.60;;;21.00;80.90;;;;;;5001531;28;20204;-70
2024/02/18 02:12:01;;;;;;;5.35;4.53;;;21.00;81.00;;;;;;5000512;28;20715;-70
2024/02/18 02:14:30;;;;;;;5.57;4.00;;;20.90;80.60;;;;;;4999708;28;20196;-69
2024/02/18 02:16:57;;;;;;;5.45;4.20;;;20.90;81.00;;;;;;5000131;28;20201;-73
2024/02/18 02:19:27;;;;;;;4.97;3.75;;;20.90;80.70;;;;;;5000570;28;20203;-69
2024/02/18 02:21:56;;;;;;;6.60;5.50;;;20.90;80.60;;;;;;5000363;28;20204;-71
2024/02/18 02:24:23;;;;;;;5.60;4.40;;;20.90;80.80;;;;;;4993040;28;20216;-69
2024/02/18 02:26:56;;;;;;;6.15;3.97;;;20.90;80.80;;;;;;4996689;28;20200;-73
2024/02/18 02:29:24;;;;;;;5.15;4.00;;;20.90;81.00;;;;;;4993667;28;20254;-71
2024/02/18 02:31:51;;;;;;;6.10;4.25;;;20.90;80.80;;;;;;4991361;28;20617;-70
2024/02/18 02:34:23;;;;;;;7.10;4.72;;;20.90;80.90;;;;;;4993626;28;21047;-74
2024/02/18 02:36:50;;;;;;;6.07;5.18;;;20.90;80.70;;;;;;5001581;28;20200;-71
2024/02/18 02:39:17;;;;;;;6.45;4.40;;;20.90;80.70;;;;;;5001171;28;20197;-72
2024/02/18 02:41:48;;;;;;;5.80;4.43;;;20.90;81.00;;;;;;4990151;28;20695;-71
2024/02/18 02:44:17;;;;;;;7.72;3.92;;;20.80;80.90;;;;;;4998568;28;20220;-72
2024/02/18 02:46:48;;;;;;;6.18;4.45;;;20.80;80.70;;;;;;5000351;28;20230;-74
2024/02/18 02:49:18;;;;;;;4.95;3.72;;;20.80;80.90;;;;;;4992457;28;20258;-71
2024/02/18 02:51:44;;;;;;;4.28;3.72;;;20.80;80.80;;;;;;5001539;28;20200;-72
2024/02/18 02:54:11;;;;;;;4.32;3.90;;;20.80;80.90;;;;;;4986273;28;20208;-74
2024/02/18 02:56:43;;;;;;;8.80;3.90;;;20.80;80.90;;;;;;4997123;28;20204;-71
2024/02/18 02:59:09;;;;;;;6.63;3.90;;;20.80;80.80;;;;;;4997289;28;20291;-73
2024/02/18 03:01:39;;;;;;;4.78;3.50;;;20.70;80.80;;;;;;4999193;28;20768;-73
2024/02/18 03:04:15;;;;;;;4.55;3.85;;;20.70;80.80;;;;;;4991357;28;20216;-72
2024/02/18 03:06:47;;;;;;;4.93;4.03;;;20.70;81.00;;;;;;4998066;28;20191;-74
2024/02/18 03:09:22;;;;;;;5.03;4.53;;;20.70;80.90;;;;;;4994457;28;20731;-70
2024/02/18 03:11:49;;;;;;;4.50;4.10;;;20.70;80.90;;;;;;4998254;28;20202;-73
2024/02/18 03:14:15;;;;;;;5.45;4.50;;;20.70;80.90;;;;;;4997430;28;20199;-73
2024/02/18 03:16:44;;;;;;;4.15;3.70;;;20.70;80.70;;;;;;4995383;28;20199;-70
2024/02/18 03:19:12;;;;;;;7.07;4.70;;;20.70;80.90;;;;;;4996641;28;20582;-70
2024/02/18 03:21:45;;;;;;;4.05;3.65;;;20.60;80.90;;;;;;4998687;28;20218;-72
2024/02/18 03:24:14;;;;;;;4.82;3.55;;;20.60;80.80;;;;;;4992527;28;20593;-71
2024/02/18 03:26:48;;;;;;;7.88;4.53;;;20.60;80.70;;;;;;4994495;28;20199;-70
2024/02/18 03:29:20;;;;;;;5.43;3.97;;;20.60;80.90;;;;;;4994993;28;20205;-72
2024/02/18 03:31:53;;;;;;;5.18;3.42;;;20.60;80.90;;;;;;4997902;28;20235;-72
2024/02/18 03:34:25;;;;;;;5.53;4.97;;;20.60;81.00;;;;;;4996936;28;20648;-72
2024/02/18 03:36:55;;;;;;;4.60;3.90;;;20.60;81.00;;;;;;4995705;28;20203;-70
2024/02/18 03:39:21;;;;;;;3.83;3.53;;;20.60;81.00;;;;;;4998080;28;20204;-72
2024/02/18 03:41:48;;;;;;;4.28;3.75;;;20.60;81.00;;;;;;4999229;28;20196;-73
2024/02/18 03:44:16;;;;;;;5.72;4.45;;;20.60;81.00;;;;;;4988903;28;21484;-69
2024/02/18 03:46:43;;;;;;;5.13;3.60;;;20.60;80.90;;;;;;4992447;28;20196;-73
2024/02/18 03:49:14;;;;;;;5.32;3.88;;;20.60;81.80;;;;;;4997765;28;20228;-70
2024/02/18 03:51:43;;;;;;;5.57;4.25;;;20.50;80.90;;;;;;5002620;28;20283;-70
2024/02/18 03:54:14;;;;;;;5.25;4.18;;;20.50;80.80;;;;;;4997219;28;20201;-70
2024/02/18 03:56:41;;;;;;;4.38;3.97;;;20.50;80.90;;;;;;5001694;28;20719;-74
2024/02/18 03:59:10;;;;;;;6.25;4.13;;;20.50;80.90;;;;;;5001759;28;20208;-73
2024/02/18 04:01:39;;;;;;;4.72;3.33;;;20.50;80.90;;;;;;5000830;28;20204;-71
2024/02/18 04:04:05;;;;;;;6.32;3.63;;;20.50;81.00;;;;;;4999057;28;20220;-73
2024/02/18 04:06:32;;;;;;;5.20;4.07;;;20.50;80.90;;;;;;5001285;28;20200;-73
2024/02/18 04:09:00;;;;;;;6.07;4.10;;;20.50;80.90;;;;;;5001843;28;20326;-73
2024/02/18 04:11:27;;;;;;;4.53;3.67;;;20.50;81.00;;;;;;5003219;28;20212;-71
2024/02/18 04:13:53;;;;;;;7.20;4.38;;;20.40;80.90;;;;;;4998888;28;20200;-74
2024/02/18 04:16:21;;;;;;;3.95;3.60;;;20.40;80.90;;;;;;5002620;28;20401;-73
2024/02/18 04:18:49;;;;;;;4.53;3.83;;;20.40;80.90;;;;;;5002593;28;20200;-71
2024/02/18 04:21:18;;;;;;;4.15;3.70;;;20.40;81.20;;;;;;5002652;28;20680;-71
2024/02/18 04:23:46;;;;;;;4.22;3.80;;;20.40;80.80;;;;;;5002709;28;20339;-71
2024/02/18 04:26:17;;;;;;;3.70;3.10;;;20.40;81.00;;;;;;5000237;28;20204;-69
2024/02/18 04:28:47;;;;;;;5.28;3.97;;;20.40;81.10;;;;;;4996823;28;20192;-71
2024/02/18 04:31:14;;;;;;;4.53;3.78;;;20.40;81.10;;;;;;4993646;28;20204;-72
2024/02/18 04:33:41;;;;;;;4.00;3.60;;;20.40;81.00;;;;;;5002121;28;20262;-70
2024/02/18 04:36:11;;;;;;;4.00;3.33;;;20.40;81.10;;;;;;4998646;28;20204;-73
2024/02/18 04:38:43;;;;;;;4.60;3.65;;;20.40;81.00;;;;;;4999416;28;20205;-72
2024/02/18 04:41:09;;;;;;;4.20;3.90;;;20.40;81.10;;;;;;4999844;28;20204;-73
2024/02/18 04:43:39;;;;;;;4.72;4.10;;;20.30;81.10;;;;;;4997386;28;20782;-71
2024/02/18 04:46:07;;;;;;;5.13;3.83;;;20.40;81.20;;;;;;4998090;28;20224;-72
2024/02/18 04:48:37;;;;;;;4.88;4.03;;;20.30;81.00;;;;;;4998874;28;20208;-73
2024/02/18 04:51:04;;;;;;;4.53;4.13;;;20.30;81.20;;;;;;4987859;28;20657;-71
2024/02/18 04:53:31;;;;;;;4.38;3.53;;;20.30;81.10;;;;;;5000473;28;20708;-73
2024/02/18 04:56:02;;;;;;;5.32;3.80;;;20.30;81.00;;;;;;4994491;28;20203;-70
2024/02/18 04:58:29;;;;;;;4.05;3.30;;;20.30;81.00;;;;;;5000626;28;20200;-70
2024/02/18 05:00:58;;;;;;;5.32;3.72;;;20.30;81.30;;;;;;4988286;28;20207;-72
2024/02/18 05:03:26;;;;;;;3.63;3.33;;;20.30;81.20;;;;;;5000909;28;20196;-71
2024/02/18 05:05:54;;;;;;;3.80;3.45;;;20.30;81.20;;;;;;5000840;28;20243;-70
2024/02/18 05:08:21;;;;;;;4.00;3.60;;;20.30;81.20;;;;;;4994105;28;20815;-72
2024/02/18 05:10:50;;;;;;;5.43;3.45;;;20.30;81.40;;;;;;5000521;28;20510;-71
2024/02/18 05:13:21;;;;;;;3.80;3.45;;;20.20;81.10;;;;;;4997960;28;20663;-73
2024/02/18 05:15:51;;;;;;;3.92;3.25;;;20.30;81.20;;;;;;4994566;28;20208;-72
2024/02/18 05:18:19;;;;;;;3.65;3.25;;;20.20;81.30;;;;;;4998897;28;20720;-71
2024/02/18 05:20:46;;;;;;;4.30;3.70;;;20.20;81.10;;;;;;4994060;28;20200;-73
2024/02/18 05:23:16;;;;;;;4.97;3.83;;;20.20;81.20;;;;;;4994372;28;20200;-72
2024/02/18 05:25:44;;;;;;;4.05;3.20;;;20.20;81.10;;;;;;4998157;28;20219;-72
2024/02/18 05:28:10;;;;;;;4.00;3.60;;;20.20;81.00;;;;;;4997760;28;20203;-73
2024/02/18 05:30:37;;;;;;;4.15;3.75;;;20.20;81.30;;;;;;4995432;28;20215;-72
2024/02/18 05:33:09;;;;;;;3.75;3.25;;;20.20;81.20;;;;;;4997898;28;20196;-73
2024/02/18 05:35:37;;;;;;;3.92;3.30;;;20.20;81.00;;;;;;4992717;28;20204;-70
2024/02/18 05:38:06;;;;;;;4.28;3.40;;;20.20;81.30;;;;;;4997489;28;20216;-69
2024/02/18 05:40:32;;;;;;;4.05;3.00;;;20.20;81.40;;;;;;4997036;28;20223;-72
2024/02/18 05:42:59;;;;;;;4.70;3.15;;;20.20;81.20;;;;;;4994185;28;20204;-73
2024/02/18 05:45:31;;;;;;;4.72;3.60;;;20.20;81.20;;;;;;4997413;28;21212;-72
2024/02/18 05:47:59;;;;;;;3.75;3.28;;;20.20;81.40;;;;;;4999684;28;20200;-70
2024/02/18 05:50:26;;;;;;;5.60;3.75;;;20.10;81.20;;;;;;4995351;28;20207;-70
2024/02/18 05:52:56;;;;;;;4.68;3.70;;;20.10;81.20;;;;;;4996457;28;20203;-70
2024/02/18 05:55:26;;;;;;;4.03;3.40;;;20.10;81.20;;;;;;5000375;28;20219;-70
2024/02/18 05:57:53;;;;;;;4.95;4.05;;;20.10;81.20;;;;;;4998618;28;20200;-73
2024/02/18 06:00:27;;;;;;;2.58;2.25;;;20.10;81.30;;;;;;4997847;28;20214;-73
2024/02/18 06:02:55;;;;;;;3.40;3.10;;;20.10;81.20;;;;;;5004169;28;20200;-70
2024/02/18 06:05:25;;;;;;;5.45;3.53;;;20.10;81.50;;;;;;5000503;28;20219;-71
2024/02/18 06:07:51;;;;;;;3.58;3.00;;;20.10;81.30;;;;;;4998233;28;20537;-71
2024/02/18 06:10:25;;;;;;;4.72;3.60;;;20.10;81.50;;;;;;4996531;28;20235;-72
2024/02/18 06:12:59;;;;;;;4.05;3.45;;;20.10;81.40;;;;;;5002905;28;20757;-71
2024/02/18 06:15:27;;;;;;;5.13;3.70;;;20.10;81.60;;;;;;5001554;28;20574;-69
2024/02/18 06:17:57;;;;;;;3.65;3.20;;;20.10;81.30;;;;;;5000951;28;20554;-71
2024/02/18 06:20:25;;;;;;;4.53;3.53;;;20.10;81.50;;;;;;5001580;28;20221;-73
2024/02/18 06:22:59;;;;;;;3.80;3.40;;;20.10;81.20;;;;;;5001240;28;20196;-70
2024/02/18 06:25:36;;;;;;;4.00;3.40;;;20.10;81.50;;;;;;4990171;28;20798;-70
2024/02/18 06:28:08;;;;;;;4.53;3.30;;;20.10;81.60;;;;;;4996928;28;20205;-73
2024/02/18 06:30:38;;;;;;;4.00;3.60;;;20.10;81.40;;;;;;4987568;28;20208;-71
2024/02/18 06:33:14;;;;;;;4.35;3.42;;;20.10;81.40;;;;;;4996364;28;20207;-69
2024/02/18 06:35:42;;;;;;;4.13;3.00;;;20.00;81.40;;;;;;4995943;28;20563;-73
2024/02/18 06:38:15;;;;;;;4.35;3.15;;;20.00;81.40;;;;;;4994511;28;20227;-69
2024/02/18 06:40:45;;;;;;;4.78;4.32;;;20.10;81.50;;;;;;4993146;28;20200;-71
2024/02/18 06:43:12;;;;;;;4.20;3.53;;;20.00;81.50;;;;;;4992738;28;22045;-70
2024/02/18 06:45:43;;;;;;;4.68;2.65;;;20.00;81.50;;;;;;4978594;28;20239;-72
2024/02/18 06:48:15;;;;;;;4.53;4.13;;;20.00;81.70;;;;;;4989774;28;20211;-72
2024/02/18 06:50:47;;;;;;;4.45;3.75;;;20.00;81.50;;;;;;4986454;28;20196;-71
2024/02/18 06:53:17;;;;;;;3.60;2.80;;;20.00;81.40;;;;;;4986367;28;20192;-73
2024/02/18 06:55:47;;;;;;;3.70;3.10;;;20.00;81.60;;;;;;4987425;28;20204;-71
2024/02/18 06:58:16;;;;;;;5.70;4.10;;;20.00;81.60;;;;;;4985654;28;20807;-73
2024/02/18 07:00:43;;;;;;;4.13;3.30;;;20.00;81.80;;;;;;4984029;28;20205;-75
2024/02/18 07:03:10;;;;;;;3.28;2.97;;;20.00;81.90;;;;;;4983771;28;21941;-76
2024/02/18 07:05:40;;;;;;;3.35;2.80;;;20.00;81.40;;;;;;4977599;28;20223;-69
2024/02/18 07:08:08;;;;;;;3.35;3.05;;;20.00;81.60;;;;;;4994668;28;20196;-73
2024/02/18 07:10:37;;;;;;;3.80;3.40;;;20.00;81.80;;;;;;4995330;28;20200;-76
2024/02/18 07:13:14;;;;;;;3.90;3.50;;;20.00;82.00;;;;;;4995727;28;20216;-76
2024/02/18 07:15:40;;;;;;;3.83;3.42;;;20.00;81.70;;;;;;4980064;28;20290;-70
2024/02/18 07:18:07;;;;;;;4.47;3.58;;;20.00;82.00;;;;;;4971858;28;20208;-70
2024/02/18 07:20:36;;;;;;;4.15;2.97;;;20.00;81.80;;;;;;4991510;28;20299;-77
2024/02/18 07:23:05;;;;;;;4.40;2.92;;;19.90;81.50;;;;;;4993716;28;20215;-73
2024/02/18 07:25:31;;;;;;;3.35;3.05;;;20.00;81.80;;;;;;4987530;28;20219;-77
2024/02/18 07:27:58;;;;;;;4.90;3.30;;;20.00;81.80;;;;;;5001052;28;20195;-73
2024/02/18 07:30:30;;;;;;;3.40;3.10;;;19.90;81.70;;;;;;4983628;28;20655;-73
2024/02/18 07:32:56;;;;;;;4.55;3.47;;;19.90;82.00;;;;;;4996508;28;20192;-77
2024/02/18 07:35:26;;;;;;;4.07;3.40;;;19.90;82.10;;;;;;4992213;28;20214;-71
2024/02/18 07:38:03;;;;;;;3.45;3.03;;;19.90;82.40;;;;;;5002545;28;20556;-75
2024/02/18 07:40:29;;;;;;;3.50;2.95;;;20.00;82.60;;;;;;4999576;28;20199;-72
2024/02/18 07:42:56;;;;;;;5.10;3.80;;;20.00;82.50;;;;;;4996962;28;20539;-77
2024/02/18 07:45:23;;;;;;;3.33;2.70;;;20.00;82.30;;;;;;4999281;28;20580;-74
2024/02/18 07:47:53;;;;;;;4.40;2.83;;;20.00;82.50;;;;;;4995086;28;20210;-75
2024/02/18 07:50:21;;;;;;;3.70;2.97;;;20.00;82.70;;;;;;4995039;28;20211;-73
2024/02/18 07:52:48;;;;;;;3.75;3.38;;;20.10;82.80;;;;;;5005439;28;20200;-74
2024/02/18 07:55:15;;;;;;;3.30;3.00;;;20.10;82.80;;;;;;5001134;28;20204;-72
2024/02/18 07:57:44;;;;;;;3.65;2.45;;;20.10;82.80;;;;;;5004091;28;20202;-74
2024/02/18 08:00:14;;;;;;;3.17;2.65;;;20.10;82.80;;;;;;5002384;28;20212;-73
2024/02/18 08:02:45;;;;;;;3.20;2.90;;;20.10;82.80;;;;;;4991171;28;20218;-78
2024/02/18 08:05:18;;;;;;;5.13;3.00;;;20.20;83.20;;;;;;5000709;28;20203;-76
2024/02/18 08:07:54;;;;;;;4.78;2.95;;;20.20;83.10;;;;;;5007125;28;21337;-81
2024/02/18 08:10:23;;;;;;;5.43;3.92;;;20.20;83.10;;;;;;5004101;28;20204;-78
2024/02/18 08:12:50;;;;;;;4.25;3.88;;;20.20;83.00;;;;;;5006182;28;20560;-78
2024/02/18 08:15:16;;;;;;;3.35;2.95;;;20.20;82.80;;;;;;5002279;28;20204;-78
2024/02/18 08:17:47;;;;;;;3.80;3.25;;;20.20;82.90;;;;;;5001109;28;20196;-76
2024/02/18 08:20:24;;;;;;;3.55;2.53;;;20.30;83.00;;;;;;4991168;28;20259;-77
2024/02/18 08:22:53;;;;;;;3.17;2.63;;;20.30;83.90;;;;;;5002843;28;20685;-80
2024/02/18 08:25:24;;;;;;;4.40;3.55;;;20.30;83.00;;;;;;5002178;28;20231;-79
2024/02/18 08:27:52;;;;;;;3.40;3.00;;;20.30;83.00;;;;;;5001739;28;20201;-81
2024/02/18 08:30:27;;;;;;;3.20;2.63;;;20.30;82.90;;;;;;4994719;28;20212;-77
2024/02/18 08:32:55;;;;;;;2.83;2.63;;;20.30;82.80;;;;;;5005219;28;20223;-78
2024/02/18 08:35:25;;;;;;;3.45;2.63;;;20.40;83.00;;;;;;4993361;28;20573;-81
2024/02/18 08:37:54;;;;;;;2.75;2.45;;;20.40;83.00;;;;;;4997522;28;20204;-80
2024/02/18 08:40:26;;;;;;;4.05;3.03;;;20.40;82.90;;;;;;5005072;28;20212;-78
2024/02/18 08:42:55;;;;;;;3.22;2.75;;;20.40;82.90;;;;;;5004960;28;20304;-83
2024/02/18 08:45:28;;;;;;;3.08;2.65;;;20.40;82.80;;;;;;4995648;28;20750;-82
2024/02/18 08:47:57;;;;;;;3.08;2.40;;;20.40;82.80;;;;;;4983346;28;20207;-81
2024/02/18 08:53:10;;;;;;;2.55;2.28;;;20.40;82.50;;;;;;4991539;28;20215;-73
2024/02/18 08:55:39;;;;;;;3.08;2.40;;;20.50;82.70;;;;;;4986229;28;20200;-72
2024/02/18 08:58:08;;;;;;;3.53;2.95;;;20.50;82.80;;;;;;4978876;28;20195;-69
2024/02/18 09:00:35;;;;;;;3.22;2.75;;;20.50;83.40;;;;;;4987910;28;20208;-76
2024/02/18 09:03:12;;;;;;;7.65;3.75;;;20.50;83.00;;;;;;4991098;28;20513;-72
2024/02/18 09:05:43;;;;;;;2.70;2.45;;;20.50;83.90;;;;;;4987086;28;20697;-72
2024/02/18 09:08:13;;;;;;;3.20;2.90;;;20.60;83.80;;;;;;4992538;28;20204;-72
2024/02/18 09:10:42;;;;;;;3.90;2.95;;;20.60;83.10;;;;;;4998016;28;20197;-72
2024/02/18 09:13:14;;;;;;;2.63;2.28;;;20.60;83.00;;;;;;4996485;28;20215;-72
2024/02/18 09:15:40;;;;;;;5.72;2.60;;;20.60;83.10;;;;;;4989688;28;20211;-73
2024/02/18 09:18:10;;;;;;;4.40;3.10;;;20.60;82.90;;;;;;4991305;28;20196;-72
2024/02/18 09:20:38;;;;;;;2.78;2.53;;;20.60;83.70;;;;;;4994372;28;20203;-72
2024/02/18 09:23:10;;;;;;;3.50;2.83;;;20.60;82.30;;;;;;4996501;28;20851;-72
2024/02/18 09:25:39;;;;;;;3.75;2.80;;;20.60;82.80;;;;;;4988064;28;20201;-71
2024/02/18 09:28:10;;;;;;;3.10;2.58;;;20.60;82.70;;;;;;4996989;28;20628;-72
2024/02/18 09:30:39;;;;;;;2.60;2.20;;;20.60;82.80;;;;;;4996242;28;20204;-72
2024/02/18 09:33:08;;;;;;;2.95;2.72;;;20.60;82.70;;;;;;4997275;28;20201;-72
2024/02/18 09:35:38;;;;;;;2.63;2.30;;;20.60;82.50;;;;;;4994642;28;20530;-72
2024/02/18 09:38:09;;;;;;;2.85;2.33;;;20.60;82.50;;;;;;5002741;28;20204;-72
2024/02/18 09:40:41;;;;;;;3.78;2.20;;;20.60;82.50;;;;;;4998972;28;20192;-72
2024/02/18 09:43:10;;;;;;;1.98;1.75;;;20.60;82.50;;;;;;4995860;28;20220;-71
2024/02/18 09:48:27;;;;;;;2.78;2.20;;;20.70;82.50;;;;;;4995976;28;20739;-72
2024/02/18 09:51:02;;;;;;;2.50;2.20;;;20.70;82.50;;;;;;4997068;28;20359;-72
2024/02/18 09:53:35;;;;;;;2.60;2.30;;;20.60;82.30;;;;;;4987004;28;20762;-72
2024/02/18 09:56:06;;;;;;;2.20;2.00;;;20.70;82.30;;;;;;4991445;28;20204;-73
2024/02/18 09:58:35;;;;;;;2.80;2.50;;;20.70;82.30;;;;;;5002523;28;20591;-72
2024/02/18 10:01:09;;;;;;;3.00;2.23;;;20.70;83.10;;;;;;4988936;28;20192;-71
2024/02/18 10:03:37;;;;;;;2.83;2.13;;;20.70;82.30;;;;;;5001560;28;20556;-71
2024/02/18 10:06:13;;;;;;;2.58;2.15;;;20.70;82.30;;;;;;4995842;28;20227;-72
2024/02/18 10:08:51;;;;;;;9.80;2.67;;;20.70;82.30;;;;;;5002089;28;20669;-71
2024/02/18 10:11:20;;;;;;;3.70;2.20;;;20.70;81.80;;;;;;5000908;28;20195;-71
2024/02/18 10:13:51;;;;;;;2.30;2.10;;;20.70;81.70;;;;;;5002158;28;20242;-71
2024/02/18 10:16:25;;;;;;;2.30;2.10;;;20.70;82.40;;;;;;4998413;28;20751;-71
2024/02/18 10:18:57;;;;;;;2.35;2.13;;;20.70;82.10;;;;;;4997820;28;20203;-71
2024/02/18 10:21:28;;;;;;;4.65;2.55;;;20.70;82.10;;;;;;4997659;28;20196;-74
2024/02/18 10:23:56;;;;;;;2.05;1.77;;;20.70;82.20;;;;;;4999044;28;20207;-73
2024/02/18 10:26:24;;;;;;;3.90;1.80;;;20.80;82.30;;;;;;4986924;28;20313;-75
2024/02/18 10:28:55;;;;;;;2.10;1.90;;;20.80;82.40;;;;;;4991813;28;20196;-72
2024/02/18 10:31:27;;;;;;;2.08;1.83;;;20.80;82.70;;;;;;4987669;28;20564;-71
2024/02/18 10:33:53;;;;;;;1.90;1.70;;;20.80;83.10;;;;;;4986643;28;20196;-70
2024/02/18 10:36:40;;;;;;;3.38;1.85;;;20.90;83.30;;;;;;4995194;28;20226;-71
2024/02/18 10:39:21;;;;;;;1.80;1.70;;;20.90;83.50;;;;;;4989341;28;20251;-74
2024/02/18 10:41:58;;;;;;;2.55;1.75;;;20.90;83.60;;;;;;4986483;28;21014;-66
2024/02/18 10:44:56;;;;;;;2.35;2.15;;;20.90;83.70;;;;;;4976512;28;20196;-72
2024/02/18 10:47:29;;;;;;;2.55;1.90;;;21.00;83.70;;;;;;4981343;28;20226;-67
2024/02/18 10:50:04;;;;;;;2.30;2.10;;;21.00;83.70;;;;;;4973725;28;20328;-70
2024/02/18 10:52:46;;;;;;;2.80;1.85;;;21.00;83.70;;;;;;4998290;28;20196;-65
2024/02/18 10:55:30;;;;;;;2.00;1.80;;;21.00;83.70;;;;;;4994586;28;20207;-67
2024/02/18 10:58:05;;;;;;;3.53;2.87;;;21.10;83.70;;;;;;4997955;28;20200;-66
2024/02/18 11:00:39;;;;;;;2.40;2.10;;;21.10;83.60;;;;;;4994996;28;20455;-69
2024/02/18 11:03:20;;;;;;;3.45;2.50;;;21.10;83.70;;;;;;4991646;28;20200;-70
2024/02/18 11:05:51;;;;;;;2.07;1.90;;;21.20;83.70;;;;;;4979518;28;20323;-68
2024/02/18 11:08:22;;;;;;;2.40;1.90;;;21.20;84.60;;;;;;4992558;28;20933;-68
2024/02/18 11:10:51;;;;;;;2.10;1.90;;;21.20;83.70;;;;;;4993630;28;20450;-69
2024/02/18 11:13:21;;;;;;;3.20;2.00;;;21.20;83.60;;;;;;5000919;28;20215;-69
2024/02/18 11:15:50;;;;;;;3.00;2.27;;;21.20;83.60;;;;;;4993530;28;20466;-70
2024/02/18 11:18:23;;;;;;;1.97;1.70;;;21.30;83.60;;;;;;4996767;28;21087;-72
2024/02/18 11:20:55;;;;;;;2.27;1.77;;;21.30;83.60;;;;;;4990172;28;20514;-71
2024/02/18 11:23:26;;;;;;;2.30;2.10;;;21.30;83.60;;;;;;4994883;28;20771;-75
2024/02/18 11:25:57;;;;;;;3.77;2.00;;;21.30;83.50;;;;;;4990595;28;20517;-73
2024/02/18 11:28:33;;;;;;;2.05;1.85;;;21.30;83.50;;;;;;4993982;28;20489;-75
2024/02/18 11:31:02;;;;;;;1.60;1.50;;;21.40;83.40;;;;;;4993415;28;20204;-69
2024/02/18 11:33:33;;;;;;;1.60;1.50;;;21.40;83.40;;;;;;4985724;28;20463;-70
2024/02/18 11:36:18;;;;;;;2.80;2.20;;;21.40;83.50;;;;;;4986760;28;20781;-73
2024/02/18 11:38:47;;;;;;;1.90;1.70;;;21.40;83.20;;;;;;4991783;28;20466;-73
2024/02/18 11:41:32;;;;;;;3.37;1.83;;;21.30;82.90;;;;;;4987512;28;20348;-70
2024/02/18 11:44:02;;;;;;;2.80;1.80;;;21.40;83.00;;;;;;4998373;28;20466;-74
2024/02/18 11:46:39;;;;;;;2.00;1.80;;;21.40;83.00;;;;;;4998931;28;20506;-74
2024/02/18 11:49:09;;;;;;;2.47;1.70;;;21.50;83.10;;;;;;4998125;28;20808;-72
2024/02/18 11:51:37;;;;;;;2.87;1.77;;;21.50;83.00;;;;;;5001305;28;20462;-73
2024/02/18 11:54:22;;;;;;;2.00;1.77;;;21.50;83.00;;;;;;5001579;28;20461;-73
2024/02/18 11:57:00;;;;;;;2.30;1.60;;;21.50;82.90;;;;;;4995768;28;20508;-74
2024/02/18 11:59:35;;;;;;;1.97;1.80;;;21.60;83.10;;;;;;5001420;28;20466;-75
2024/02/18 12:02:02;;;;;;;3.20;2.13;;;21.50;82.90;;;;;;5000994;28;20912;-73
2024/02/18 12:04:31;;;;;;;2.30;2.10;;;21.50;83.10;;;;;;5003869;28;20466;-74
2024/02/18 12:07:04;;;;;;;1.80;1.43;;;21.50;83.30;;;;;;4998727;28;20466;-71
2024/02/18 12:09:32;;;;;;;2.63;1.60;;;21.60;83.40;;;;;;5003543;28;20467;-72
2024/02/18 12:12:02;;;;;;;1.80;1.50;;;21.60;83.40;;;;;;5004791;28;21446;-71
2024/02/18 12:14:31;;;;;;;3.10;2.17;;;21.60;83.30;;;;;;5006387;28;20459;-81
2024/02/18 12:17:09;;;;;;;3.03;1.70;;;21.70;83.50;;;;;;5009071;28;20454;-73
2024/02/18 12:19:41;;;;;;;3.37;2.30;;;21.70;83.40;;;;;;5003382;28;20453;-74
2024/02/18 12:22:29;;;;;;;1.80;1.50;;;21.70;83.40;;;;;;5006983;28;20826;-72
2024/02/18 12:24:58;;;;;;;1.60;1.50;;;21.70;83.40;;;;;;5002601;28;22301;-75
2024/02/18 12:27:39;;;;;;;2.13;1.80;;;21.70;83.40;;;;;;5004281;28;20473;-77
2024/02/18 12:30:16;;;;;;;2.13;1.57;;;21.70;83.20;;;;;;5003949;28;20475;-74
2024/02/18 12:32:49;;;;;;;1.90;1.70;;;21.80;83.30;;;;;;5004268;28;20488;-70
2024/02/18 12:35:23;;;;;;;2.20;1.50;;;21.80;83.20;;;;;;5004855;28;20472;-78
2024/02/18 12:37:54;;;;;;;1.93;1.77;;;21.80;83.10;;;;;;5004260;28;20469;-76
2024/02/18 12:40:21;;;;;;;2.13;1.60;;;21.80;82.90;;;;;;5005831;28;20913;-72
2024/02/18 12:42:50;;;;;;;1.90;1.63;;;21.80;82.90;;;;;;4998384;28;20469;-70
2024/02/18 12:45:24;;;;;;;2.00;1.80;;;21.80;82.90;;;;;;5000439;28;20476;-74
2024/02/18 12:47:54;;;;;;;1.87;1.67;;;21.80;82.90;;;;;;5002255;28;20486;-69
2024/02/18 12:50:24;;;;;;;1.90;1.70;;;21.80;82.70;;;;;;4997471;28;21261;-75
2024/02/18 12:53:04;;;;;;;1.50;1.23;;;21.90;82.80;;;;;;5002055;28;21024;-73
2024/02/18 12:55:35;;;;;;;1.40;1.30;;;21.90;82.70;;;;;;5000032;28;20450;-68
2024/02/18 12:58:08;;;;;;;1.70;1.33;;;21.90;82.80;;;;;;5000660;28;20478;-68
2024/02/18 13:00:39;;;;;;;1.83;1.63;;;21.90;82.70;;;;;;4995729;28;20459;-69
2024/02/18 13:03:17;;;;;;;1.77;1.20;;;21.90;82.70;;;;;;5005433;28;20580;-73
2024/02/18 13:05:47;;;;;;;1.53;1.27;;;21.80;82.40;;;;;;5005489;28;20463;-71
2024/02/18 13:08:22;;;;;;;1.70;1.60;;;21.90;82.70;;;;;;5003136;28;20565;-71